Time,TemperatureF,DewpointF,PressureIn,WindDirection,WindDirectionDegrees,WindSpeedMPH,WindSpeedGustMPH,Humidity,HourlyPrecipIn,Conditions,Clouds,dailyrainin,SoftwareType,DateUTC
2013-02-27 00:00:00,29.3,23.0,29.87,North,0,10.3,10.3,77,0.00,,,0.00,WUHU216HW,2013-02-27 06:00:00,
2013-02-27 00:05:00,29.3,23.0,29.87,NNE,23,7.6,10.3,77,0.00,,,0.00,WUHU216HW,2013-02-27 06:05:00,
2013-02-27 00:10:00,29.3,23.0,29.87,NNE,23,7.6,7.6,77,0.00,,,0.00,WUHU216HW,2013-02-27 06:10:00,
2013-02-27 00:30:00,28.6,23.0,29.87,North,0,10.5,10.5,79,0.00,,,0.00,WUHU216HW,2013-02-27 06:30:00,
2013-02-27 00:35:00,28.6,23.0,29.87,NNW,338,9.6,10.5,79,0.00,,,0.00,WUHU216HW,2013-02-27 06:35:00,
2013-02-27 00:40:00,28.6,23.0,29.87,NNW,338,9.6,9.6,79,0.00,,,0.00,WUHU216HW,2013-02-27 06:40:00,
2013-02-27 01:00:00,28.3,22.6,29.87,North,0,11.6,11.6,79,0.00,,,0.00,WUHU216HW,2013-02-27 07:00:00,
2013-02-27 01:05:00,28.3,22.6,29.87,NW,315,6.9,11.6,79,0.00,,,0.00,WUHU216HW,2013-02-27 07:05:00,
2013-02-27 01:10:00,28.3,22.6,29.87,NW,315,6.9,6.9,79,0.00,,,0.00,WUHU216HW,2013-02-27 07:10:00,
2013-02-27 01:30:00,28.3,22.6,29.87,North,0,11.2,11.2,79,0.00,,,0.00,WUHU216HW,2013-02-27 07:30:00,
2013-02-27 01:35:00,28.3,22.6,29.87,NNW,338,7.6,11.2,79,0.00,,,0.00,WUHU216HW,2013-02-27 07:35:00,
2013-02-27 01:40:00,28.3,22.6,29.87,NNW,338,7.6,7.6,79,0.00,,,0.00,WUHU216HW,2013-02-27 07:40:00,
2013-02-27 02:00:00,27.9,22.2,29.88,North,0,13.2,13.2,79,0.00,,,0.00,WUHU216HW,2013-02-27 08:00:00,
2013-02-27 02:05:00,27.9,22.2,29.88,North,0,7.6,13.2,79,0.00,,,0.00,WUHU216HW,2013-02-27 08:05:00,
2013-02-27 02:10:00,27.9,22.2,29.88,North,0,7.6,7.6,79,0.00,,,0.00,WUHU216HW,2013-02-27 08:10:00,
2013-02-27 02:30:00,28.6,23.0,29.88,North,0,9.2,9.2,79,0.00,,,0.00,WUHU216HW,2013-02-27 08:30:00,
2013-02-27 02:35:00,28.6,23.0,29.88,North,0,9.4,9.4,79,0.00,,,0.00,WUHU216HW,2013-02-27 08:35:00,
2013-02-27 02:40:00,28.6,23.0,29.88,North,0,9.4,9.4,79,0.00,,,0.00,WUHU216HW,2013-02-27 08:40:00,
2013-02-27 03:00:00,29.2,23.5,29.87,NNE,23,11.4,11.4,79,0.00,,,0.00,WUHU216HW,2013-02-27 09:00:00,
2013-02-27 03:05:00,29.2,23.5,29.87,North,0,12.8,12.8,79,0.00,,,0.00,WUHU216HW,2013-02-27 09:05:00,
2013-02-27 03:10:00,29.2,23.5,29.87,North,0,12.8,12.8,79,0.00,,,0.00,WUHU216HW,2013-02-27 09:10:00,
2013-02-27 03:30:00,29.2,23.5,29.86,NNW,338,6.7,6.7,79,0.00,,,0.00,WUHU216HW,2013-02-27 09:30:00,
2013-02-27 03:35:00,29.2,23.5,29.86,North,0,8.7,8.7,79,0.00,,,0.00,WUHU216HW,2013-02-27 09:35:00,
2013-02-27 04:00:00,28.8,23.1,29.86,North,0,9.2,9.2,79,0.00,,,0.00,WUHU216HW,2013-02-27 10:00:00,
2013-02-27 04:05:00,28.8,23.1,29.86,NNW,338,9.2,9.2,79,0.00,,,0.00,WUHU216HW,2013-02-27 10:05:00,
2013-02-27 04:30:00,28.6,23.0,29.86,North,0,8.1,8.1,79,0.00,,,0.00,WUHU216HW,2013-02-27 10:30:00,
2013-02-27 04:35:00,28.6,23.0,29.86,North,0,6.3,8.1,79,0.00,,,0.00,WUHU216HW,2013-02-27 10:35:00,
2013-02-27 04:40:00,28.6,23.0,29.86,North,0,6.3,6.3,79,0.00,,,0.00,WUHU216HW,2013-02-27 10:40:00,
2013-02-27 05:00:00,28.6,23.0,29.86,North,0,8.9,8.9,79,0.00,,,0.00,WUHU216HW,2013-02-27 11:00:00,
2013-02-27 05:05:00,28.4,22.8,29.86,North,0,8.5,8.9,79,0.00,,,0.00,WUHU216HW,2013-02-27 11:05:00,
2013-02-27 05:30:00,28.8,23.1,29.86,NNW,338,10.5,10.5,79,0.00,,,0.00,WUHU216HW,2013-02-27 11:30:00,
2013-02-27 05:35:00,28.8,23.1,29.86,NNE,23,6.0,10.5,79,0.00,,,0.00,WUHU216HW,2013-02-27 11:35:00,
2013-02-27 05:36:00,28.8,23.1,29.86,NNE,23,6.0,10.5,79,0.00,,,0.00,WUHU216HW,2013-02-27 11:36:00,
2013-02-27 05:40:00,28.8,23.1,29.86,NNE,23,6.0,10.5,79,0.00,,,0.00,WUHU216HW,2013-02-27 11:40:00,
2013-02-27 06:00:00,28.8,23.1,29.87,North,0,6.7,6.7,79,0.00,,,0.00,WUHU216HW,2013-02-27 12:00:00,
2013-02-27 06:05:00,28.8,23.1,29.87,North,0,9.2,9.2,79,0.00,,,0.00,WUHU216HW,2013-02-27 12:05:00,
2013-02-27 06:10:00,28.8,23.1,29.87,North,0,9.2,9.2,79,0.00,,,0.00,WUHU216HW,2013-02-27 12:10:00,
2013-02-27 06:30:00,28.6,23.0,29.87,North,0,10.3,10.3,79,0.00,,,0.00,WUHU216HW,2013-02-27 12:30:00,
2013-02-27 06:35:00,28.6,23.0,29.87,North,0,10.3,10.3,79,0.00,,,0.00,WUHU216HW,2013-02-27 12:35:00,
2013-02-27 06:36:00,28.6,23.0,29.87,North,0,10.3,10.3,79,0.00,,,0.00,WUHU216HW,2013-02-27 12:36:00,
2013-02-27 06:40:00,28.6,23.0,29.87,North,0,10.3,10.3,79,0.00,,,0.00,WUHU216HW,2013-02-27 12:40:00,
2013-02-27 07:00:00,27.7,22.3,29.87,NNW,338,8.5,8.5,80,0.00,,,0.00,WUHU216HW,2013-02-27 13:00:00,
2013-02-27 07:05:00,27.7,22.3,29.87,NNW,338,8.5,8.5,80,0.00,,,0.00,WUHU216HW,2013-02-27 13:05:00,
2013-02-27 07:10:00,27.7,22.3,29.87,NNW,338,8.5,8.5,80,0.00,,,0.00,WUHU216HW,2013-02-27 13:10:00,
2013-02-27 07:30:00,27.4,22.0,29.88,NNW,338,4.3,4.3,80,0.00,,,0.00,WUHU216HW,2013-02-27 13:30:00,
2013-02-27 07:35:00,27.4,22.0,29.88,North,0,2.9,4.3,80,0.00,,,0.00,WUHU216HW,2013-02-27 13:35:00,
2013-02-27 07:40:00,27.4,22.0,29.88,North,0,2.9,4.3,80,0.00,,,0.00,WUHU216HW,2013-02-27 13:40:00,
2013-02-27 08:00:00,27.4,22.0,29.90,NNW,338,8.7,8.7,80,0.00,,,0.00,WUHU216HW,2013-02-27 14:00:00,
2013-02-27 08:05:00,27.4,22.0,29.90,North,0,10.7,11.0,80,0.00,,,0.00,WUHU216HW,2013-02-27 14:05:00,
2013-02-27 08:10:00,27.4,22.0,29.90,North,0,10.7,11.0,80,0.00,,,0.00,WUHU216HW,2013-02-27 14:10:00,
2013-02-27 08:30:00,28.1,22.7,29.90,NNW,338,5.4,5.4,80,0.00,,,0.00,WUHU216HW,2013-02-27 14:30:00,
2013-02-27 08:35:00,28.1,22.7,29.90,NNW,338,6.0,6.0,80,0.00,,,0.00,WUHU216HW,2013-02-27 14:35:00,
2013-02-27 08:36:00,28.1,22.7,29.90,NNW,338,6.0,6.0,80,0.00,,,0.00,WUHU216HW,2013-02-27 14:36:00,
2013-02-27 09:00:00,29.7,23.9,29.90,NNW,338,10.1,10.1,79,0.00,,,0.00,WUHU216HW,2013-02-27 15:00:00,
2013-02-27 09:05:00,29.7,23.9,29.90,North,0,10.7,10.7,79,0.00,,,0.00,WUHU216HW,2013-02-27 15:05:00,
2013-02-27 09:10:00,29.7,23.9,29.90,North,0,10.7,10.7,79,0.00,,,0.00,WUHU216HW,2013-02-27 15:10:00,
2013-02-27 09:30:00,31.3,24.7,29.89,NNW,338,7.6,7.6,76,0.00,,,0.00,WUHU216HW,2013-02-27 15:30:00,
2013-02-27 09:35:00,31.3,24.7,29.89,NNW,338,8.1,8.1,76,0.00,,,0.00,WUHU216HW,2013-02-27 15:35:00,
2013-02-27 09:40:00,31.3,24.7,29.89,NNW,338,8.1,8.1,76,0.00,,,0.00,WUHU216HW,2013-02-27 15:40:00,
2013-02-27 10:00:00,32.9,24.8,29.89,NNW,338,9.8,9.8,72,0.00,,,0.00,WUHU216HW,2013-02-27 16:00:00,
2013-02-27 10:05:00,33.1,25.0,29.89,NNW,338,9.8,9.8,72,0.00,,,0.00,WUHU216HW,2013-02-27 16:05:00,
2013-02-27 10:30:00,34.0,25.2,29.88,NNW,338,8.7,8.7,70,0.00,,,0.00,WUHU216HW,2013-02-27 16:30:00,
2013-02-27 10:35:00,34.0,25.2,29.88,North,0,8.7,8.7,70,0.00,,,0.00,WUHU216HW,2013-02-27 16:35:00,
2013-02-27 10:36:00,34.0,25.2,29.88,North,0,8.7,8.7,70,0.00,,,0.00,WUHU216HW,2013-02-27 16:36:00,
2013-02-27 10:40:00,34.0,25.2,29.88,North,0,8.7,8.7,70,0.00,,,0.00,WUHU216HW,2013-02-27 16:40:00,
2013-02-27 11:00:00,35.1,25.9,29.87,NNW,338,8.1,8.1,69,0.00,,,0.00,WUHU216HW,2013-02-27 17:00:00,
2013-02-27 11:01:00,35.1,25.9,29.87,NNW,338,9.6,9.8,69,0.00,,,0.00,WUHU216HW,2013-02-27 17:01:00,
2013-02-27 11:05:00,35.1,25.9,29.87,NNW,338,9.6,9.8,69,0.00,,,0.00,WUHU216HW,2013-02-27 17:05:00,
2013-02-27 11:06:00,35.1,25.9,29.87,NNW,338,9.6,9.8,69,0.00,,,0.00,WUHU216HW,2013-02-27 17:06:00,
2013-02-27 11:10:00,35.1,25.9,29.87,NNW,338,9.6,9.6,69,0.00,,,0.00,WUHU216HW,2013-02-27 17:10:00,
2013-02-27 11:30:00,36.9,25.8,29.87,NNW,338,11.4,11.4,64,0.00,,,0.00,WUHU216HW,2013-02-27 17:30:00,
2013-02-27 11:35:00,36.9,25.8,29.87,North,0,12.1,12.1,64,0.00,,,0.00,WUHU216HW,2013-02-27 17:35:00,
2013-02-27 11:36:00,36.9,25.8,29.87,North,0,12.1,12.1,64,0.00,,,0.00,WUHU216HW,2013-02-27 17:36:00,
2013-02-27 11:40:00,36.9,25.8,29.87,North,0,12.1,12.1,64,0.00,,,0.00,WUHU216HW,2013-02-27 17:40:00,
2013-02-27 12:00:00,37.8,26.3,29.86,North,0,13.4,13.4,63,0.00,,,0.00,WUHU216HW,2013-02-27 18:00:00,
2013-02-27 12:05:00,37.8,26.3,29.86,North,0,12.5,13.4,63,0.00,,,0.00,WUHU216HW,2013-02-27 18:05:00,
2013-02-27 12:10:00,37.8,26.3,29.86,North,0,12.5,12.5,63,0.00,,,0.00,WUHU216HW,2013-02-27 18:10:00,
2013-02-27 12:30:00,38.2,25.8,29.86,North,0,14.3,14.3,61,0.00,,,0.00,WUHU216HW,2013-02-27 18:30:00,
2013-02-27 12:35:00,38.2,25.8,29.86,North,0,14.3,14.3,61,0.00,,,0.00,WUHU216HW,2013-02-27 18:35:00,
2013-02-27 12:36:00,38.2,25.8,29.86,North,0,14.3,14.3,61,0.00,,,0.00,WUHU216HW,2013-02-27 18:36:00,
2013-02-27 12:40:00,38.2,25.8,29.86,North,0,14.3,14.3,61,0.00,,,0.00,WUHU216HW,2013-02-27 18:40:00,
2013-02-27 13:00:00,38.2,25.8,29.86,North,0,13.9,13.9,61,0.00,,,0.00,WUHU216HW,2013-02-27 19:00:00,
2013-02-27 13:05:00,38.2,25.8,29.86,North,0,15.0,15.0,61,0.00,,,0.00,WUHU216HW,2013-02-27 19:05:00,
2013-02-27 13:10:00,38.2,25.8,29.86,North,0,15.0,15.0,61,0.00,,,0.00,WUHU216HW,2013-02-27 19:10:00,
2013-02-27 13:30:00,38.2,26.3,29.87,NNE,23,11.4,11.4,62,0.00,,,0.00,WUHU216HW,2013-02-27 19:30:00,
2013-02-27 13:35:00,38.2,26.3,29.87,North,0,11.4,11.4,62,0.00,,,0.00,WUHU216HW,2013-02-27 19:35:00,
2013-02-27 13:36:00,38.2,26.3,29.87,North,0,11.4,11.4,62,0.00,,,0.00,WUHU216HW,2013-02-27 19:36:00,
2013-02-27 13:40:00,38.2,26.3,29.87,North,0,11.4,11.4,62,0.00,,,0.00,WUHU216HW,2013-02-27 19:40:00,
2013-02-27 14:00:00,38.3,26.4,29.88,NNE,23,8.9,8.9,62,0.00,,,0.00,WUHU216HW,2013-02-27 20:00:00,
2013-02-27 14:05:00,38.3,26.4,29.88,NE,45,12.1,12.1,62,0.00,,,0.00,WUHU216HW,2013-02-27 20:05:00,
2013-02-27 14:30:00,37.8,26.6,29.88,NE,45,13.4,13.4,64,0.00,,,0.00,WUHU216HW,2013-02-27 20:30:00,
2013-02-27 14:35:00,37.8,26.6,29.88,NE,45,11.6,13.4,64,0.00,,,0.00,WUHU216HW,2013-02-27 20:35:00,
2013-02-27 14:40:00,37.8,26.6,29.88,NE,45,11.6,13.4,64,0.00,,,0.00,WUHU216HW,2013-02-27 20:40:00,
2013-02-27 15:00:00,35.6,26.5,29.88,NNE,23,6.3,6.3,69,0.00,,,0.00,WUHU216HW,2013-02-27 21:00:00,
2013-02-27 15:05:00,35.8,26.7,29.88,NE,45,9.4,9.4,69,0.00,,,0.00,WUHU216HW,2013-02-27 21:05:00,
2013-02-27 15:10:00,35.8,26.7,29.88,NE,45,9.4,9.4,69,0.00,,,0.00,WUHU216HW,2013-02-27 21:10:00,
2013-02-27 15:30:00,34.9,26.5,29.89,NE,45,6.3,6.3,71,0.00,,,0.00,WUHU216HW,2013-02-27 21:30:00,
2013-02-27 15:35:00,34.9,26.5,29.89,NE,45,6.3,6.3,71,0.00,,,0.00,WUHU216HW,2013-02-27 21:35:00,
2013-02-27 16:00:00,34.2,25.8,29.90,NNE,23,11.4,11.4,71,0.00,,,0.00,WUHU216HW,2013-02-27 22:00:00,
2013-02-27 16:05:00,34.2,25.8,29.90,NE,45,14.3,14.3,71,0.00,,,0.00,WUHU216HW,2013-02-27 22:05:00,
2013-02-27 16:10:00,34.2,25.8,29.90,NE,45,14.3,14.3,71,0.00,,,0.00,WUHU216HW,2013-02-27 22:10:00,
2013-02-27 16:30:00,33.8,25.7,29.91,NNE,23,13.2,13.2,72,0.00,,,0.00,WUHU216HW,2013-02-27 22:30:00,
2013-02-27 16:35:00,33.8,25.7,29.91,NNE,23,10.7,13.2,72,0.00,,,0.00,WUHU216HW,2013-02-27 22:35:00,
2013-02-27 17:00:00,33.5,25.7,29.91,NE,45,9.8,9.8,73,0.00,,,0.00,WUHU216HW,2013-02-27 23:00:00,
2013-02-27 17:05:00,33.5,25.7,29.91,NNE,23,8.9,9.8,73,0.00,,,0.00,WUHU216HW,2013-02-27 23:05:00,
2013-02-27 17:30:00,32.8,25.7,29.92,NE,45,7.6,7.6,75,0.00,,,0.00,WUHU216HW,2013-02-27 23:30:00,
2013-02-27 17:35:00,32.8,25.7,29.92,NNE,23,9.8,9.8,75,0.00,,,0.00,WUHU216HW,2013-02-27 23:35:00,
2013-02-27 18:00:00,32.0,25.4,29.93,NNE,23,9.8,9.8,76,0.00,,,0.00,WUHU216HW,2013-02-28 00:00:00,
2013-02-27 18:05:00,32.0,25.4,29.93,NNE,23,9.2,9.8,76,0.00,,,0.00,WUHU216HW,2013-02-28 00:05:00,
2013-02-27 18:30:00,31.5,24.9,29.95,NE,45,7.6,7.6,76,0.00,,,0.00,WUHU216HW,2013-02-28 00:30:00,
2013-02-27 18:31:00,31.5,24.9,29.95,NE,45,7.6,7.6,76,0.00,,,0.00,WUHU216HW,2013-02-28 00:31:00,
2013-02-27 18:35:00,31.5,24.9,29.95,NE,45,7.6,7.6,76,0.00,,,0.00,WUHU216HW,2013-02-28 00:35:00,
2013-02-27 18:36:00,31.5,24.9,29.95,NE,45,7.6,7.6,76,0.00,,,0.00,WUHU216HW,2013-02-28 00:36:00,
2013-02-27 19:00:00,31.0,24.3,29.96,NE,45,11.0,11.0,76,0.00,,,0.00,WUHU216HW,2013-02-28 01:00:00,
2013-02-27 19:05:00,31.0,24.3,29.96,NE,45,11.0,11.0,76,0.00,,,0.00,WUHU216HW,2013-02-28 01:05:00,
2013-02-27 19:10:00,31.0,24.3,29.96,NE,45,11.0,11.0,76,0.00,,,0.00,WUHU216HW,2013-02-28 01:10:00,
2013-02-27 19:30:00,30.2,23.9,29.97,North,0,6.3,6.3,77,0.00,,,0.00,WUHU216HW,2013-02-28 01:30:00,
2013-02-27 19:35:00,30.4,24.0,29.97,NNE,23,5.6,6.3,77,0.00,,,0.00,WUHU216HW,2013-02-28 01:35:00,
2013-02-27 19:40:00,30.4,24.0,29.97,NNE,23,5.6,6.3,77,0.00,,,0.00,WUHU216HW,2013-02-28 01:40:00,
2013-02-27 20:00:00,29.7,23.3,29.97,North,0,2.9,2.9,77,0.00,,,0.00,WUHU216HW,2013-02-28 02:00:00,
2013-02-27 20:05:00,29.7,23.3,29.97,NNE,23,4.7,6.3,77,0.00,,,0.00,WUHU216HW,2013-02-28 02:05:00,
2013-02-27 20:10:00,29.7,23.3,29.97,NNE,23,4.7,6.3,77,0.00,,,0.00,WUHU216HW,2013-02-28 02:10:00,
2013-02-27 20:30:00,29.3,23.3,29.98,NNW,338,6.9,6.9,78,0.00,,,0.00,WUHU216HW,2013-02-28 02:30:00,
2013-02-27 20:35:00,29.3,23.3,29.98,NNW,338,1.8,6.9,78,0.00,,,0.00,WUHU216HW,2013-02-28 02:35:00,
2013-02-27 20:36:00,29.3,23.3,29.98,NNW,338,1.8,6.9,78,0.00,,,0.00,WUHU216HW,2013-02-28 02:36:00,
2013-02-27 21:00:00,29.3,23.0,29.98,NNW,338,10.3,10.3,77,0.00,,,0.00,WUHU216HW,2013-02-28 03:00:00,
2013-02-27 21:05:00,29.3,23.0,29.98,NNW,338,8.5,10.3,77,0.00,,,0.00,WUHU216HW,2013-02-28 03:05:00,
2013-02-27 21:10:00,29.3,23.0,29.98,NNW,338,8.5,10.3,77,0.00,,,0.00,WUHU216HW,2013-02-28 03:10:00,
2013-02-27 21:30:00,29.2,22.5,29.99,North,0,15.2,15.2,76,0.00,,,0.00,WUHU216HW,2013-02-28 03:30:00,
2013-02-27 21:35:00,29.2,22.5,29.99,North,0,14.8,15.2,76,0.00,,,0.00,WUHU216HW,2013-02-28 03:35:00,
2013-02-27 22:00:00,29.7,22.7,29.99,NNE,23,7.2,7.2,75,0.00,,,0.00,WUHU216HW,2013-02-28 04:00:00,
2013-02-27 22:05:00,29.7,22.7,29.99,NNE,23,7.2,7.2,75,0.00,,,0.00,WUHU216HW,2013-02-28 04:05:00,
2013-02-27 22:30:00,30.1,23.4,30.00,NNW,338,1.8,1.8,76,0.00,,,0.00,WUHU216HW,2013-02-28 04:30:00,
2013-02-27 22:35:00,29.9,23.2,30.00,NNW,338,1.1,1.8,76,0.00,,,0.00,WUHU216HW,2013-02-28 04:35:00,
2013-02-27 22:36:00,29.9,23.2,30.00,NNW,338,1.1,1.8,76,0.00,,,0.00,WUHU216HW,2013-02-28 04:36:00,
2013-02-27 22:40:00,29.9,23.2,30.00,NNW,338,1.1,1.1,76,0.00,,,0.00,WUHU216HW,2013-02-28 04:40:00,
2013-02-27 23:00:00,29.9,23.2,30.00,North,0,4.7,4.7,76,0.00,,,0.00,WUHU216HW,2013-02-28 05:00:00,
2013-02-27 23:05:00,29.9,23.2,30.00,North,0,7.4,7.4,76,0.00,,,0.00,WUHU216HW,2013-02-28 05:05:00,
2013-02-27 23:06:00,29.9,23.2,30.00,North,0,7.4,7.4,76,0.00,,,0.00,WUHU216HW,2013-02-28 05:06:00,
2013-02-27 23:10:00,29.9,23.2,30.00,North,0,7.4,7.4,76,0.00,,,0.00,WUHU216HW,2013-02-28 05:10:00,
2013-02-27 23:30:00,30.1,23.0,30.00,North,0,1.8,1.8,75,0.00,,,0.00,WUHU216HW,2013-02-28 05:30:00,
2013-02-27 23:35:00,30.1,23.4,30.00,NNE,23,1.8,1.8,76,0.00,,,0.00,WUHU216HW,2013-02-28 05:35:00,
2013-02-27 23:36:00,30.1,23.4,30.00,NNE,23,1.8,1.8,76,0.00,,,0.00,WUHU216HW,2013-02-28 05:36:00,
2013-02-27 23:40:00,30.1,23.4,30.00,NNE,23,1.8,1.8,76,0.00,,,0.00,WUHU216HW,2013-02-28 05:40:00,